Terminal Aerodrome Forecast
Issued by NWS

Home | Current Version | Previous Version | Text Only | Print | Product List | Glossary On
Versions: 1 2 3 4 5 6 7 8 9 10 11 12 13 14 15 16 17 18 19
000
FTUS45 KREV 222300
TAFTVL
TAF
KTVL 222320Z 2300/2324 19008KT P6SM BKN160
     FM231200 19010G17KT P6SM BKN160
     FM231800 19014G24KT P6SM BKN090 OVC140=

USA.gov is the U.S. government's official web portal to all federal, state and local government web resources and services.